createdAt,value
2019-02-22T00:03:24.476Z,102154.03
2019-02-22T00:08:27.173Z,102159.72
2019-02-22T00:13:29.803Z,102166.30
2019-02-22T00:18:32.451Z,102161.12
2019-02-22T00:23:35.072Z,102167.05
2019-02-22T00:28:37.734Z,102162.82
2019-02-22T00:33:40.374Z,102169.67
2019-02-22T00:38:43.061Z,102182.33
2019-02-22T00:43:45.756Z,102188.86
2019-02-22T00:48:48.411Z,102192.78
2019-02-22T00:53:51.078Z,102186.27
2019-02-22T00:58:53.727Z,102196.66
2019-02-22T01:03:56.349Z,102200.58
2019-02-22T01:08:59.006Z,102208.70
2019-02-22T01:14:01.680Z,102211.76
2019-02-22T01:19:04.356Z,102213.80
2019-02-22T01:24:07.107Z,102215.59
2019-02-22T01:29:09.722Z,102217.39
2019-02-22T01:34:12.366Z,102229.47
2019-02-22T01:39:14.985Z,102231.50
2019-02-22T01:44:18.322Z,102250.25
2019-02-22T01:49:21.006Z,102253.70
2019-02-22T01:54:23.656Z,102266.31
2019-02-22T01:59:26.304Z,102265.02
2019-02-22T02:04:28.950Z,102271.08
2019-02-22T02:09:31.665Z,102272.80
2019-02-22T02:14:34.287Z,102277.51
2019-02-22T02:19:36.947Z,102277.44
2019-02-22T02:24:39.580Z,102274.88
2019-02-22T02:29:42.271Z,102261.11
2019-02-22T02:34:44.930Z,102275.45
2019-02-22T02:39:47.647Z,102278.92
2019-02-22T02:44:50.334Z,102282.27
2019-02-22T02:49:53.045Z,102277.08
2019-02-22T02:54:55.736Z,102280.52
2019-02-22T02:59:58.410Z,102290.08
2019-02-22T03:05:01.123Z,102297.48
2019-02-22T03:10:04.187Z,102301.89
2019-02-22T03:15:07.938Z,102308.25
2019-02-22T03:20:10.860Z,102324.77
2019-02-22T03:25:13.493Z,102334.66
2019-02-22T03:30:16.295Z,102340.72
2019-02-22T03:35:19.029Z,102329.38
2019-02-22T03:40:21.663Z,102339.30
2019-02-22T03:45:24.332Z,102338.96
2019-02-22T03:50:27.028Z,102338.11
2019-02-22T03:55:30.660Z,102344.17
2019-02-22T04:00:33.366Z,102363.61
2019-02-22T04:05:36.058Z,102365.89
2019-02-22T04:10:38.703Z,102375.06
2019-02-22T04:15:41.372Z,102381.56
2019-02-22T04:20:44.076Z,102363.69
2019-02-22T04:25:47.467Z,102373.33
2019-02-22T04:30:50.895Z,102378.13
2019-02-22T04:35:53.587Z,102378.16
2019-02-22T04:40:56.245Z,102384.32
2019-02-22T04:45:58.886Z,102385.65
2019-02-22T04:51:01.529Z,102389.90
2019-02-22T04:56:04.146Z,102404.14
2019-02-22T05:01:06.800Z,102403.19
2019-02-22T05:06:09.434Z,102415.75
2019-02-22T05:11:12.074Z,102422.12
2019-02-22T05:16:14.720Z,102419.91
2019-02-22T05:21:17.371Z,102426.90
2019-02-22T05:26:20.093Z,102438.36
2019-02-22T05:31:22.722Z,102448.88
2019-02-22T05:36:25.367Z,102442.03
2019-02-22T05:41:27.995Z,102437.73
2019-02-22T05:46:30.642Z,102450.34
2019-02-22T05:51:33.280Z,102454.80
2019-02-22T05:56:36.633Z,102453.04
2019-02-22T06:01:39.332Z,102461.22
2019-02-22T06:06:41.980Z,102453.89
2019-02-22T06:11:44.620Z,102460.00
2019-02-22T06:16:47.259Z,102467.24
2019-02-22T06:21:49.958Z,102475.02
2019-02-22T06:26:52.687Z,102479.77
2019-02-22T06:31:55.315Z,102478.08
2019-02-22T06:37:01.665Z,102491.94
2019-02-22T06:42:02.364Z,102500.63
2019-02-22T06:47:05.009Z,102503.25
2019-02-22T06:52:07.632Z,102506.73
2019-02-22T06:57:10.271Z,102508.55
2019-02-22T07:02:12.904Z,102508.16
2019-02-22T07:07:15.562Z,102511.23
2019-02-22T07:12:34.658Z,102515.98
2019-02-22T07:17:37.303Z,102526.83
2019-02-22T07:22:39.924Z,102544.66
2019-02-22T07:27:42.548Z,102559.76
2019-02-22T07:32:45.954Z,102566.78
2019-02-22T07:37:48.662Z,102567.12
2019-02-22T07:42:51.304Z,102577.19
2019-02-22T07:47:53.920Z,102583.46
2019-02-22T07:52:56.563Z,102590.45
2019-02-22T07:57:59.270Z,102594.39
2019-02-22T08:03:02.719Z,102608.73
2019-02-22T08:08:05.418Z,102610.03
2019-02-22T08:13:19.240Z,102633.56
2019-02-22T08:18:12.447Z,102639.22
2019-02-22T08:23:15.073Z,102651.61
2019-02-22T08:28:17.714Z,102666.86
2019-02-22T08:33:20.346Z,102659.99
2019-02-22T08:38:22.987Z,102671.59
2019-02-22T08:43:31.474Z,102684.83
2019-02-22T08:48:30.027Z,102674.28
2019-02-22T08:53:32.718Z,102684.98
2019-02-22T08:58:35.365Z,102699.34
2019-02-22T09:03:49.396Z,102707.85
2019-02-22T09:08:42.411Z,102715.45
2019-02-22T09:13:45.044Z,102720.55
2019-02-22T09:18:47.690Z,102725.19
2019-02-22T09:23:50.323Z,102734.24
2019-02-22T09:28:55.492Z,102739.20
2019-02-22T09:33:57.377Z,102739.53
2019-02-22T09:39:00.016Z,102740.19
2019-02-22T09:44:02.674Z,102742.22
2019-02-22T09:49:05.400Z,102746.95
2019-02-22T09:54:08.030Z,102762.74
2019-02-22T09:59:10.673Z,102766.17
2019-02-22T10:04:14.810Z,102770.27
2019-02-22T10:09:17.459Z,102780.36
2019-02-22T10:14:20.083Z,102780.70
2019-02-22T10:19:22.711Z,102780.91
2019-02-22T10:24:25.377Z,102793.03
2019-02-22T10:29:28.032Z,102782.66
2019-02-22T10:34:30.672Z,102790.66
2019-02-22T10:39:33.378Z,102788.42
2019-02-22T10:44:36.073Z,102795.84
2019-02-22T10:49:38.720Z,102799.78
2019-02-22T10:54:41.440Z,102808.97
2019-02-22T10:59:44.081Z,102807.36
2019-02-22T11:04:46.725Z,102801.75
2019-02-22T11:09:49.351Z,102811.81
2019-02-22T11:14:51.980Z,102814.94
2019-02-22T11:19:54.601Z,102824.06
2019-02-22T11:24:57.285Z,102828.59
2019-02-22T11:29:59.917Z,102837.66
2019-02-22T11:35:02.582Z,102840.81
2019-02-22T11:40:06.604Z,102844.20
2019-02-22T11:45:09.827Z,102839.96
2019-02-22T11:50:12.928Z,102843.32
2019-02-22T11:55:15.632Z,102849.45
2019-02-22T12:00:22.630Z,102843.23
2019-02-22T12:05:25.300Z,102848.69
2019-02-22T12:10:27.941Z,102851.45
2019-02-22T12:15:31.509Z,102861.42
2019-02-22T12:20:34.301Z,102857.27
2019-02-22T12:25:36.956Z,102853.15
2019-02-22T12:30:39.626Z,102865.58
2019-02-22T12:35:42.259Z,102870.93
2019-02-22T12:40:44.914Z,102871.55
2019-02-22T12:45:47.531Z,102882.27
2019-02-22T12:50:50.241Z,102880.57
2019-02-22T12:55:52.863Z,102889.59
2019-02-22T13:00:55.529Z,102897.52
2019-02-22T13:05:58.163Z,102891.39
2019-02-22T13:11:00.802Z,102885.00
2019-02-22T13:16:03.424Z,102887.98
2019-02-22T13:21:06.055Z,102893.02
2019-02-22T13:26:08.688Z,102897.31
2019-02-22T13:31:11.319Z,102899.11
2019-02-22T13:36:13.950Z,102897.17
2019-02-22T13:41:16.598Z,102897.85
2019-02-22T13:46:21.063Z,102899.25
2019-02-22T13:51:23.780Z,102904.41
2019-02-22T13:56:29.650Z,102912.02
2019-02-22T14:01:30.786Z,102915.16
2019-02-22T14:06:33.486Z,102923.62
2019-02-22T14:11:36.095Z,102925.53
2019-02-22T14:16:38.725Z,102925.02
2019-02-22T14:21:41.384Z,102929.61
2019-02-22T14:26:44.090Z,102934.95
2019-02-22T14:31:47.038Z,102930.83
2019-02-22T14:36:49.885Z,102933.86
2019-02-22T14:41:52.560Z,102917.87
2019-02-22T14:46:55.199Z,102920.17
2019-02-22T14:51:57.824Z,102913.05
2019-02-22T14:57:00.452Z,102917.87
2019-02-22T15:02:03.086Z,102923.84
2019-02-22T15:07:05.708Z,102923.79
2019-02-22T15:12:08.346Z,102922.84
2019-02-22T15:17:21.409Z,102928.86
2019-02-22T15:22:24.037Z,102928.67
2019-02-22T15:27:26.682Z,102931.63
2019-02-22T15:32:29.348Z,102937.11
2019-02-22T15:37:31.967Z,102935.45
2019-02-22T15:42:34.684Z,102935.97
2019-02-22T15:47:37.377Z,102934.14
2019-02-22T15:52:40.018Z,102934.95
2019-02-22T15:57:42.663Z,102930.10
2019-02-22T16:02:45.332Z,102940.17
2019-02-22T16:07:48.122Z,102948.57
2019-02-22T16:12:50.791Z,102948.50
2019-02-22T16:17:53.456Z,102954.36
2019-02-22T16:22:56.250Z,102963.02
2019-02-22T16:27:58.962Z,102968.52
2019-02-22T16:33:01.610Z,102976.61
2019-02-22T16:38:04.239Z,102977.39
2019-02-22T16:43:06.866Z,102986.89
2019-02-22T16:48:09.588Z,102988.33
2019-02-22T16:53:12.260Z,102996.11
2019-02-22T16:58:14.964Z,102997.19
2019-02-22T17:03:17.580Z,103009.09
2019-02-22T17:08:20.195Z,103012.89
2019-02-22T17:13:22.820Z,103013.20
2019-02-22T17:18:25.443Z,103010.76
2019-02-22T17:23:28.139Z,103016.92
2019-02-22T17:28:31.634Z,103017.84
2019-02-22T17:33:34.291Z,103026.07
2019-02-22T17:38:36.934Z,103031.92
2019-02-22T17:43:39.578Z,103029.95
2019-02-22T17:48:42.303Z,103050.48
2019-02-22T17:53:44.933Z,103056.83
2019-02-22T18:00:31.978Z,103044.19
2019-02-22T18:05:34.752Z,103044.13
2019-02-22T18:10:37.483Z,103054.95
2019-02-22T18:15:40.262Z,103064.13
2019-02-22T18:20:43.009Z,103065.52
2019-02-22T18:31:49.949Z,103080.15
2019-02-22T18:39:36.714Z,103084.89
2019-02-22T18:44:40.171Z,103078.47
2019-02-22T18:53:47.238Z,103077.79
2019-02-22T18:58:50.656Z,103086.41
2019-02-22T19:03:54.067Z,103092.57
2019-02-22T19:08:57.485Z,103085.40
2019-02-22T19:14:00.960Z,103070.47
2019-02-22T19:19:04.409Z,103079.40
2019-02-22T19:24:07.900Z,103082.14
2019-02-22T19:29:11.389Z,103074.45
2019-02-22T19:34:14.815Z,103085.47
2019-02-22T19:39:18.233Z,103075.73
2019-02-22T19:44:21.652Z,103073.55
2019-02-22T19:49:25.074Z,103069.39
2019-02-22T19:54:28.506Z,103084.99
2019-02-22T19:59:31.936Z,103082.62
2019-02-22T20:04:35.352Z,103090.84
2019-02-22T20:09:38.812Z,103083.27
2019-02-22T20:14:42.243Z,103083.02
2019-02-22T20:19:45.671Z,103086.34
2019-02-22T20:24:49.100Z,103090.54
2019-02-22T20:29:52.528Z,103109.22
2019-02-22T20:34:55.971Z,103122.19
2019-02-22T20:39:59.410Z,103131.95
2019-02-22T20:45:02.885Z,103151.75
2019-02-22T20:50:11.572Z,103157.00
2019-02-22T20:55:14.987Z,103170.68
2019-02-22T21:00:23.431Z,103158.53
2019-02-22T21:05:26.848Z,103166.90
2019-02-22T21:10:30.301Z,103157.31
2019-02-22T21:15:33.725Z,103154.69
2019-02-22T21:20:37.161Z,103155.50
2019-02-22T21:25:40.591Z,103153.00
2019-02-22T21:30:44.062Z,103167.89
2019-02-22T21:35:47.497Z,103167.00
2019-02-22T21:40:50.913Z,103158.24
2019-02-22T21:45:54.348Z,103169.73
2019-02-22T21:50:57.782Z,103173.19
2019-02-22T21:56:01.254Z,103171.50
2019-02-22T22:01:32.222Z,103179.86
2019-02-22T22:06:35.636Z,103193.09
2019-02-22T22:11:39.056Z,103202.55
2019-02-22T22:16:42.490Z,103191.78
2019-02-22T22:21:45.908Z,103184.09
2019-02-22T22:26:49.341Z,103180.34
2019-02-22T22:31:52.754Z,103186.72
2019-02-22T22:36:56.196Z,103197.16
2019-02-22T22:41:59.642Z,103205.73
2019-02-22T22:47:03.107Z,103211.22
2019-02-22T22:52:06.532Z,103215.25
2019-02-22T22:57:09.969Z,103212.53
2019-02-22T23:02:13.574Z,103206.05
2019-02-22T23:07:17.161Z,103221.65
2019-02-22T23:12:20.592Z,103218.50
2019-02-22T23:17:24.022Z,103218.50
2019-02-22T23:22:27.460Z,103217.69
2019-02-22T23:27:30.892Z,103217.85
2019-02-22T23:32:34.320Z,103209.59
2019-02-22T23:37:37.858Z,103206.21
2019-02-22T23:42:42.124Z,103199.91
2019-02-22T23:47:45.582Z,103191.84
2019-02-22T23:52:49.011Z,103207.65
2019-02-22T23:57:52.476Z,103212.52
